Stigler, OK

11:22 PM CST on February 23, 2017 (GMT -0600)
Stigler

Weather History for KGZL - February, 2013

Change the Weather History Date:

Monday, February 25, 2013

  Actual Average (KJSV) Record (KJSV)
Temperature  
Mean Temperature 42 °F -  
Max Temperature 44 °F 59 °F 78 °F (1956)
Min Temperature 39 °F 35 °F 11 °F (1967)
Degree Days  
Heating Degree Days 22    
Moisture  
Dew Point 37 °F    
Average Humidity 80    
Maximum Humidity 100    
Minimum Humidity 53    
Precipitation  
Precipitation 0.63 in - - ()
Sea Level Pressure  
Sea Level Pressure 29.58 in    
Wind  
Wind Speed 13 mph (East)    
Max Wind Speed 24 mph    
Max Gust Speed 39 mph    
Visibility 7 miles    
Events Rain , Thunderstorm    
Averages and records for this station are not official NWS values.
T = Trace of Precipitation, MM = Missing Value Source: NWS Daily Summary

Daily Weather History Graph

Daily Weather History Graph

Search for Another Location

Airport or City:

Trip Planner

Search our weather history database for the weather conditions in past years. The results will help you decide how hot, cold, wet, or windy it might be!

Date:

Astronomy

Feb. 25, 2013 Rise Set
Actual Time 6:54 AM CST 6:12 PM CST
Civil Twilight 6:29 AM CST 6:38 PM CST
Nautical Twilight 5:59 AM CST 7:07 PM CST
Astronomical Twilight 5:30 AM CST 7:37 PM CST
Moon 6:24 PM CST (2/25) 6:26 AM CST (2/25)
Length of Visible Light 12h 08m
Length of Day
11h 17m
Full, 100% of the Moon is Illuminated
Feb 25
Full
Feb 25
Full
Mar 4
Last Quarter
Mar 11
New
Mar 19
First Quarter

Hourly Weather History & Observations

Time (CST) Temp. Windchill Dew Point Humidity Pressure Visibility Wind Dir Wind Speed Gust Speed Precip Events Conditions
12:15 AM 44.6 °F 37.2 °F 32.0 °F 61% 29.79 in 10.0 mi East 17.3 mph 21.9 mph N/A   Overcast
12:35 AM 44.6 °F 38.1 °F 32.0 °F 61% 29.81 in 10.0 mi East 13.8 mph 18.4 mph N/A   Overcast
12:55 AM 44.6 °F 38.8 °F 32.0 °F 61% 29.83 in 10.0 mi East 11.5 mph 17.3 mph N/A   Overcast
1:15 AM 44.6 °F 39.2 °F 32.0 °F 61% 29.83 in 10.0 mi East 10.4 mph 17.3 mph N/A   Overcast
1:35 AM 44.6 °F 38.4 °F 32.0 °F 61% 29.83 in 10.0 mi East 12.7 mph 19.6 mph N/A   Overcast
1:55 AM 44.6 °F 38.1 °F 32.0 °F 61% 29.81 in 10.0 mi East 13.8 mph 18.4 mph N/A   Overcast
2:15 AM 44.6 °F 37.8 °F 32.0 °F 61% 29.79 in 10.0 mi East 15.0 mph - N/A   Overcast
2:35 AM 44.6 °F 37.8 °F 32.0 °F 61% 29.77 in 10.0 mi East 15.0 mph - N/A   Overcast
2:55 AM 44.6 °F 38.8 °F 32.0 °F 61% 29.78 in 10.0 mi East 11.5 mph 19.6 mph N/A   Overcast
3:15 AM 44.6 °F 38.8 °F 32.0 °F 61% 29.78 in 10.0 mi East 11.5 mph 21.9 mph N/A   Overcast
3:35 AM 44.6 °F 39.2 °F 32.0 °F 61% 29.77 in 10.0 mi East 10.4 mph - N/A   Overcast
3:55 AM 44.6 °F 39.2 °F 32.0 °F 61% 29.77 in 10.0 mi East 10.4 mph - N/A   Overcast
4:15 AM 44.6 °F 40.2 °F 32.0 °F 61% 29.78 in 10.0 mi East 8.1 mph - N/A   Overcast
4:35 AM 44.6 °F 39.2 °F 32.0 °F 61% 29.77 in 10.0 mi East 10.4 mph - N/A   Overcast
4:55 AM 44.6 °F 39.2 °F 32.0 °F 61% 29.74 in 10.0 mi East 10.4 mph - N/A   Overcast
5:15 AM 44.6 °F 38.1 °F 32.0 °F 61% 29.75 in 10.0 mi East 13.8 mph 18.4 mph N/A   Overcast
5:35 AM 44.6 °F 36.9 °F 32.0 °F 61% 29.71 in 10.0 mi East 18.4 mph 23.0 mph N/A   Overcast
5:55 AM 44.6 °F 37.2 °F 30.2 °F 57% 29.70 in 10.0 mi East 17.3 mph - N/A   Overcast
6:15 AM 44.6 °F 36.9 °F 30.2 °F 57% 29.69 in 10.0 mi East 18.4 mph 25.3 mph N/A   Overcast
6:35 AM 44.6 °F 36.6 °F 30.2 °F 57% 29.66 in 10.0 mi East 19.6 mph 25.3 mph N/A   Overcast
6:55 AM 44.6 °F 36.1 °F 30.2 °F 57% 29.63 in 10.0 mi East 21.9 mph 28.8 mph N/A   Mostly Cloudy
7:15 AM 44.6 °F 35.7 °F 28.4 °F 53% 29.63 in 10.0 mi ESE 24.2 mph 31.1 mph N/A   Mostly Cloudy
7:35 AM 44.6 °F 35.7 °F 32.0 °F 61% 29.61 in 8.0 mi ESE 24.2 mph 39.1 mph N/A Rain Light Rain
7:55 AM 42.8 °F 33.5 °F 32.0 °F 66% 29.61 in 10.0 mi ESE 23.0 mph 36.8 mph N/A   Overcast
8:15 AM 42.8 °F 37.5 °F 32.0 °F 66% 29.67 in 10.0 mi WNW 9.2 mph 17.3 mph N/A Thunderstorm Overcast
8:35 AM 41.0 °F 37.1 °F 35.6 °F 81% 29.68 in 4.0 mi East 5.8 mph 18.4 mph 0.02 in Rain , Thunderstorm Light Rain
8:55 AM 41.0 °F 33.1 °F 37.4 °F 87% 29.64 in 3.0 mi East 15.0 mph - 0.12 in Rain , Thunderstorm Light Rain
9:15 AM 41.0 °F 32.2 °F 37.4 °F 87% 29.60 in 5.0 mi East 18.4 mph 24.2 mph N/A Rain Light Rain
9:35 AM 42.8 °F 35.8 °F 35.6 °F 76% 29.58 in 10.0 mi East 13.8 mph 26.5 mph N/A   Overcast
9:55 AM 44.6 °F 35.9 °F 35.6 °F 71% 29.55 in 9.0 mi East 23.0 mph 32.2 mph N/A Thunderstorm Overcast
10:15 AM 42.8 °F 33.3 °F 35.6 °F 76% 29.53 in 7.0 mi East 24.2 mph 31.1 mph 0.01 in Rain Rain
10:35 AM 42.8 °F 33.5 °F 35.6 °F 76% 29.53 in 4.0 mi East 23.0 mph 33.4 mph 0.02 in Rain , Thunderstorm Light Rain
10:55 AM 42.8 °F 34.8 °F 35.6 °F 76% 29.59 in 9.0 mi WNW 17.3 mph 26.5 mph 0.03 in Rain , Thunderstorm Light Rain
11:15 AM 41.0 °F - 37.4 °F 87% 29.63 in 1.8 mi Calm Calm - 0.17 in Rain , Thunderstorm Thunderstorms and Rain
11:35 AM 41.0 °F 37.1 °F 39.2 °F 93% 29.58 in 3.0 mi NNE 5.8 mph - 0.35 in Rain , Thunderstorm Light Rain
11:55 AM 41.0 °F 37.1 °F 39.2 °F 93% 29.61 in 4.0 mi ENE 5.8 mph - 0.40 in Rain , Thunderstorm Light Thunderstorms and Rain
12:15 PM 41.0 °F 35.2 °F 39.2 °F 93% 29.58 in 4.0 mi North 9.2 mph - 0.01 in Rain , Thunderstorm Light Rain
12:35 PM 42.8 °F 36.6 °F 41.0 °F 93% 29.55 in 5.0 mi NNE 11.5 mph - 0.02 in   Mostly Cloudy
12:55 PM 42.8 °F 36.6 °F 41.0 °F 93% 29.55 in 5.0 mi NE 11.5 mph - 0.02 in   Mostly Cloudy
1:15 PM 42.8 °F 38.0 °F 41.0 °F 93% 29.53 in 2.5 mi NE 8.1 mph 16.1 mph 0.01 in   Overcast
1:35 PM 42.8 °F 37.5 °F 41.0 °F 93% 29.52 in 2.5 mi NE 9.2 mph - 0.02 in Rain Light Rain
1:55 PM 42.8 °F 38.0 °F 41.0 °F 93% 29.50 in 6.0 mi NE 8.1 mph - 0.02 in   Mostly Cloudy
2:15 PM 42.8 °F 38.0 °F 41.0 °F 93% 29.50 in 7.0 mi ENE 8.1 mph - N/A   Mostly Cloudy
2:35 PM 42.8 °F 37.5 °F 41.0 °F 93% 29.49 in 7.0 mi ENE 9.2 mph - N/A   Overcast
2:55 PM 42.8 °F 35.8 °F 41.0 °F 93% 29.47 in 8.0 mi ENE 13.8 mph - N/A   Overcast
3:15 PM 44.6 °F 38.1 °F 41.0 °F 87% 29.45 in 4.0 mi ENE 13.8 mph 19.6 mph N/A   Overcast
3:35 PM 42.8 °F 36.2 °F 41.0 °F 93% 29.44 in 4.0 mi ENE 12.7 mph 24.2 mph N/A   Overcast
3:55 PM 42.8 °F 37.0 °F 41.0 °F 93% 29.43 in 5.0 mi ENE 10.4 mph - N/A   Overcast
4:15 PM 42.8 °F 39.3 °F 41.0 °F 93% 29.44 in 7.0 mi East 5.8 mph - N/A   Overcast
4:35 PM 44.6 °F 39.7 °F 42.8 °F 93% 29.44 in 10.0 mi ENE 9.2 mph - N/A   Overcast
4:55 PM 44.6 °F 41.4 °F 41.0 °F 87% 29.45 in 5.0 mi East 5.8 mph - N/A   Overcast
5:15 PM 44.6 °F 41.4 °F 41.0 °F 87% 29.44 in 2.0 mi ENE 5.8 mph - N/A   Overcast
5:35 PM 44.6 °F 39.2 °F 41.0 °F 87% 29.44 in 2.5 mi East 10.4 mph - N/A   Overcast
5:55 PM 44.6 °F 40.7 °F 42.8 °F 93% 29.45 in 3.0 mi East 6.9 mph - 0.01 in Rain Light Rain
6:15 PM 44.6 °F 39.7 °F 42.8 °F 93% 29.45 in 7.0 mi East 9.2 mph - N/A Rain Light Rain
6:35 PM 44.6 °F 40.2 °F 42.8 °F 93% 29.46 in 3.0 mi East 8.1 mph - 0.01 in Rain Light Rain
6:55 PM 44.6 °F 40.7 °F 42.8 °F 93% 29.46 in 3.0 mi ESE 6.9 mph - 0.02 in Rain Light Rain
7:15 PM 44.6 °F 40.7 °F 42.8 °F 93% 29.44 in 3.0 mi ESE 6.9 mph - 0.01 in Rain Light Rain
7:55 PM 44.6 °F - 42.8 °F 93% 29.44 in 10.0 mi Calm Calm - 0.01 in   Overcast
8:15 PM 44.6 °F - 42.8 °F 93% 29.43 in 9.0 mi Calm Calm - N/A   Overcast
8:35 PM 44.6 °F - 42.8 °F 93% 29.43 in 8.0 mi Calm Calm - N/A   Overcast
8:55 PM 44.6 °F 42.2 °F 42.8 °F 93% 29.42 in 6.0 mi SSE 4.6 mph - N/A   Overcast
9:15 PM 44.6 °F 43.1 °F 42.8 °F 93% 29.42 in 5.0 mi WSW 3.5 mph - N/A   Overcast
9:35 PM 44.6 °F 43.1 °F 42.8 °F 93% 29.42 in 3.0 mi NW 3.5 mph - N/A   Overcast
9:55 PM 44.6 °F 43.1 °F 44.6 °F 100% 29.42 in 4.0 mi NW 3.5 mph - N/A   Overcast
10:15 PM 42.8 °F 37.5 °F 42.8 °F 100% 29.42 in 3.0 mi NW 9.2 mph - N/A   Overcast
10:35 PM 41.0 °F 36.4 °F 41.0 °F 100% 29.42 in 5.0 mi NW 6.9 mph - N/A   Overcast
10:55 PM 41.0 °F 35.8 °F 41.0 °F 100% 29.42 in 5.0 mi WNW 8.1 mph - N/A   Overcast
11:15 PM 41.0 °F 34.7 °F 41.0 °F 100% 29.42 in 5.0 mi West 10.4 mph - N/A   Overcast
11:35 PM 41.0 °F 35.2 °F 41.0 °F 100% 29.42 in 4.0 mi West 9.2 mph 16.1 mph N/A   Overcast
11:55 PM 39.2 °F 32.0 °F 39.2 °F 100% 29.42 in 5.0 mi West 11.5 mph - N/A   Overcast